Time;durP1;ratioP1;P1;durP2;ratioP2;P2;SDS_P1;SDS_P2;PMS_P1;PMS_P2;Temp;Humidity;BMP_temperature;BMP_pressure;BME280_temperature;BME280_humidity;BME280_pressure;Samples;Min_cycle;Max_cycle;Signal;HPM_P1;HPM_P2
2023/06/26 00:01:02;;;;;;;12.35;10.60;;;;;;;17.93;100.00;101371.38;5115626;28;20099;-51
2023/06/26 00:03:29;;;;;;;17.50;11.15;;;;;;;17.90;100.00;101358.19;5111333;28;20055;-51
2023/06/26 00:06:00;;;;;;;18.60;11.98;;;;;;;17.86;100.00;101362.03;5105378;28;20148;-51
2023/06/26 00:08:27;;;;;;;;;;;;;;;17.83;100.00;101356.88;5116246;28;20079;-51
2023/06/26 00:10:54;;;;;;;16.17;12.90;;;;;;;17.80;100.00;101358.81;5106460;28;20221;-51
2023/06/26 00:13:21;;;;;;;14.65;12.35;;;;;;;17.78;100.00;101360.72;5103012;28;20118;-51
2023/06/26 00:15:48;;;;;;;18.80;12.80;;;;;;;17.73;100.00;101357.47;5094686;28;20188;-51
2023/06/26 00:18:15;;;;;;;14.45;11.60;;;;;;;17.71;100.00;101366.56;5101088;28;20147;-51
2023/06/26 00:20:41;;;;;;;14.80;11.63;;;;;;;17.69;100.00;101360.47;5094981;28;20051;-51
2023/06/26 00:23:08;;;;;;;15.27;11.98;;;;;;;17.67;100.00;101357.03;5096849;28;20075;-51
2023/06/26 00:25:34;;;;;;;15.57;12.55;;;;;;;17.66;100.00;101361.53;5104461;28;20053;-52
2023/06/26 00:28:01;;;;;;;20.48;12.80;;;;;;;17.65;100.00;101359.78;5115555;28;20130;-52
2023/06/26 00:30:27;;;;;;;18.25;12.18;;;;;;;17.60;100.00;101357.44;5109991;28;20050;-51
2023/06/26 00:32:54;;;;;;;15.75;12.48;;;;;;;17.60;100.00;101356.56;5114764;28;20565;-51
2023/06/26 00:35:21;;;;;;;17.27;12.05;;;;;;;17.61;100.00;101355.63;5111060;28;20131;-51
2023/06/26 00:37:47;;;;;;;16.92;11.25;;;;;;;17.60;100.00;101351.22;5106379;28;20055;-51
2023/06/26 00:40:14;;;;;;;16.52;13.30;;;;;;;17.58;100.00;101353.16;5094459;28;20128;-52
2023/06/26 00:42:40;;;;;;;14.35;12.00;;;;;;;17.52;100.00;101353.53;5101779;28;20055;-51
2023/06/26 00:45:07;;;;;;;18.20;12.93;;;;;;;17.45;100.00;101360.25;5108128;28;20047;-52
2023/06/26 00:47:34;;;;;;;23.20;14.57;;;;;;;17.41;100.00;101363.13;5111622;28;20126;-51
2023/06/26 00:50:01;;;;;;;16.90;13.02;;;;;;;17.41;100.00;101357.78;5114825;28;20091;-52
2023/06/26 00:52:27;;;;;;;19.65;14.20;;;;;;;17.43;100.00;101361.22;5112426;28;20140;-51
2023/06/26 00:54:55;;;;;;;17.52;13.07;;;;;;;17.42;100.00;101354.13;5101232;28;20429;-52
2023/06/26 00:57:21;;;;;;;18.73;13.65;;;;;;;17.38;100.00;101357.97;5105445;28;20055;-52
2023/06/26 00:59:49;;;;;;;18.92;14.10;;;;;;;17.35;100.00;101355.50;5102685;28;20044;-52
2023/06/26 01:02:19;;;;;;;16.77;13.43;;;;;;;17.32;100.00;101353.03;5112885;28;20127;-52
2023/06/26 01:04:48;;;;;;;;;;;;;;;17.28;100.00;101354.19;5097678;28;20394;-49
2023/06/26 01:07:18;;;;;;;18.52;14.70;;;;;;;17.23;100.00;101357.16;5113890;28;20006;-51
2023/06/26 01:09:48;;;;;;;19.85;14.25;;;;;;;17.20;100.00;101354.69;5109063;28;20499;-51
2023/06/26 01:12:15;;;;;;;20.10;15.85;;;;;;;17.19;100.00;101355.63;5106892;28;20043;-52
2023/06/26 01:14:41;;;;;;;22.75;16.00;;;;;;;17.20;100.00;101351.16;5111740;28;20104;-51
2023/06/26 01:17:15;;;;;;;21.13;14.43;;;;;;;17.15;100.00;101342.59;5104079;28;20052;-51
2023/06/26 01:19:43;;;;;;;19.40;14.90;;;;;;;17.15;100.00;101345.25;5103399;28;20413;-51
2023/06/26 01:22:20;;;;;;;21.63;16.35;;;;;;;17.20;100.00;101343.16;5108685;28;20066;-52
2023/06/26 01:25:10;;;;;;;22.42;16.40;;;;;;;17.17;100.00;101343.34;5112741;28;20052;-51
2023/06/26 01:27:38;;;;;;;18.00;14.27;;;;;;;17.16;100.00;101341.63;5107206;28;20064;-51
2023/06/26 01:30:06;;;;;;;19.45;15.65;;;;;;;17.15;100.00;101342.59;5113767;28;20177;-51
2023/06/26 01:32:33;;;;;;;19.83;15.77;;;;;;;17.12;100.00;101340.13;5113374;28;20039;-52
2023/06/26 01:35:01;;;;;;;19.00;14.38;;;;;;;17.08;100.00;101341.25;5110158;28;20079;-51
2023/06/26 01:37:28;;;;;;;19.77;14.43;;;;;;;17.10;100.00;101331.31;5108820;28;20131;-52
2023/06/26 01:39:54;;;;;;;19.63;14.23;;;;;;;17.05;100.00;101329.81;5094545;28;20531;-51
2023/06/26 01:42:21;;;;;;;16.95;13.23;;;;;;;17.01;100.00;101328.28;5095678;28;20127;-51
2023/06/26 01:44:48;;;;;;;22.40;13.90;;;;;;;16.98;100.00;101333.81;5111086;28;20100;-51
2023/06/26 01:47:21;;;;;;;16.95;13.27;;;;;;;16.96;100.00;101330.38;5112835;28;20047;-51
2023/06/26 01:49:51;;;;;;;18.05;14.90;;;;;;;16.93;100.00;101330.56;5104787;28;20521;-51
2023/06/26 01:52:35;;;;;;;18.55;13.27;;;;;;;16.92;100.00;101326.22;5093755;28;20130;-51
2023/06/26 01:55:14;;;;;;;16.13;13.50;;;;;;;16.88;100.00;101316.66;5108854;28;20044;-52
2023/06/26 01:57:42;;;;;;;21.40;14.10;;;;;;;16.88;100.00;101327.34;5098350;28;20043;-51
2023/06/26 02:00:11;;;;;;;18.10;14.30;;;;;;;16.85;100.00;101312.41;5105697;28;20050;-51
2023/06/26 02:02:37;;;;;;;22.02;14.85;;;;;;;16.89;100.00;101318.38;5098578;28;20547;-51
2023/06/26 02:05:04;;;;;;;18.67;15.23;;;;;;;16.85;100.00;101316.84;5108993;28;20452;-51
2023/06/26 02:07:31;;;;;;;18.17;13.68;;;;;;;16.83;100.00;101310.72;5100944;28;20078;-51
2023/06/26 02:09:57;;;;;;;20.40;15.00;;;;;;;16.80;100.00;101313.59;5112464;28;20104;-52
2023/06/26 02:12:24;;;;;;;19.58;14.05;;;;;;;16.75;100.00;101305.03;5109944;28;20127;-52
2023/06/26 02:14:51;;;;;;;20.65;15.25;;;;;;;16.70;100.00;101305.31;5102891;28;20051;-51
2023/06/26 02:17:17;;;;;;;20.48;13.77;;;;;;;16.67;100.00;101308.16;5113550;28;20092;-52
2023/06/26 02:19:47;;;;;;;17.73;15.30;;;;;;;16.65;100.00;101307.41;5110089;28;20048;-51
2023/06/26 02:22:15;;;;;;;17.42;13.93;;;;;;;16.61;100.00;101298.75;5107517;28;20360;-52
2023/06/26 02:24:42;;;;;;;17.95;14.07;;;;;;;16.60;100.00;101302.34;5091986;28;20052;-52
2023/06/26 02:27:09;;;;;;;18.30;14.65;;;;;;;16.61;100.00;101303.19;5096274;28;20066;-51
2023/06/26 02:29:36;;;;;;;19.80;14.82;;;;;;;16.58;100.00;101298.09;5112729;28;20130;-52
2023/06/26 02:32:03;;;;;;;18.08;14.32;;;;;;;16.59;100.00;101302.44;5105420;28;20078;-52
2023/06/26 02:34:30;;;;;;;23.73;15.57;;;;;;;16.57;100.00;101297.19;5112061;28;20056;-52
2023/06/26 02:36:58;;;;;;;19.83;15.32;;;;;;;16.57;100.00;101297.19;5106291;28;20086;-51
2023/06/26 02:39:24;;;;;;;20.38;14.18;;;;;;;16.54;100.00;101294.72;5095161;28;20048;-51
2023/06/26 02:41:51;;;;;;;20.40;14.88;;;;;;;16.56;100.00;101292.84;5093667;28;20058;-51
2023/06/26 02:44:18;;;;;;;18.85;14.55;;;;;;;16.58;100.00;101298.09;5092012;28;20146;-51
2023/06/26 02:46:45;;;;;;;17.02;14.85;;;;;;;16.58;100.00;101293.59;5099591;28;20044;-52
2023/06/26 02:49:11;;;;;;;19.38;14.35;;;;;;;16.60;100.00;101291.69;5096170;28;20635;-51
2023/06/26 02:51:38;;;;;;;19.30;14.20;;;;;;;16.66;100.00;101285.97;5112868;28;20047;-51
2023/06/26 02:54:04;;;;;;;18.55;14.63;;;;;;;16.71;100.00;101283.00;5091986;28;20135;-51
2023/06/26 02:56:31;;;;;;;22.45;14.27;;;;;;;16.75;100.00;101283.66;5096548;28;20139;-51
2023/06/26 02:58:58;;;;;;;16.65;14.27;;;;;;;16.77;100.00;101279.06;5110059;28;20433;-51
2023/06/26 03:01:25;;;;;;;18.67;14.13;;;;;;;16.79;100.00;101280.72;5090798;28;20076;-51
2023/06/26 03:03:52;;;;;;;17.77;15.38;;;;;;;16.84;100.00;101280.41;5090865;28;20489;-52
2023/06/26 03:06:19;;;;;;;18.48;14.20;;;;;;;16.84;100.00;101283.09;5095662;28;20048;-51
2023/06/26 03:08:45;;;;;;;21.20;15.68;;;;;;;16.83;100.00;101278.69;5101512;28;20131;-52
2023/06/26 03:11:12;;;;;;;20.95;15.35;;;;;;;16.82;100.00;101274.28;5089973;28;20127;-51
2023/06/26 03:13:38;;;;;;;22.13;14.32;;;;;;;16.78;100.00;101267.47;5090007;28;20464;-52
2023/06/26 03:16:05;;;;;;;20.02;14.95;;;;;;;16.77;100.00;101279.06;5090089;28;20054;-51
2023/06/26 03:18:31;;;;;;;18.35;15.23;;;;;;;16.77;100.00;101271.06;5090779;28;20047;-52
2023/06/26 03:20:59;;;;;;;20.65;16.48;;;;;;;16.79;100.00;101269.19;5091557;28;20124;-51
2023/06/26 03:23:26;;;;;;;16.67;14.32;;;;;;;16.78;100.00;101267.47;5093535;28;20076;-52
2023/06/26 03:25:53;;;;;;;19.33;15.40;;;;;;;16.75;100.00;101271.16;5091460;28;20463;-51
2023/06/26 03:28:19;;;;;;;18.50;15.52;;;;;;;16.74;100.00;101266.81;5091764;28;20519;-52
2023/06/26 03:30:46;;;;;;;18.98;15.10;;;;;;;16.75;100.00;101263.16;5103838;28;20048;-51
2023/06/26 03:33:12;;;;;;;17.90;15.55;;;;;;;16.80;100.00;101260.19;5112309;28;20051;-52
2023/06/26 03:35:39;;;;;;;20.42;16.35;;;;;;;16.80;100.00;101260.19;5112330;28;20395;-51
2023/06/26 03:38:05;;;;;;;24.00;16.13;;;;;;;16.79;100.00;101258.50;5115006;28;20051;-52
2023/06/26 03:40:32;;;;;;;19.33;14.40;;;;;;;16.80;100.00;101265.53;5110856;28;20436;-51
2023/06/26 03:42:58;;;;;;;17.90;14.95;;;;;;;16.82;100.00;101260.94;5095737;28;20172;-51
2023/06/26 03:45:25;;;;;;;23.85;15.38;;;;;;;16.82;100.00;101260.94;5094961;28;20478;-51
2023/06/26 03:47:52;;;;;;;20.08;14.43;;;;;;;16.85;100.00;101259.00;5094975;28;20101;-51
2023/06/26 03:50:19;;;;;;;20.05;15.73;;;;;;;16.88;100.00;101258.78;5095053;28;20044;-51
2023/06/26 03:52:45;;;;;;;18.38;15.98;;;;;;;16.91;100.00;101262.22;5094865;28;20155;-52
2023/06/26 03:55:12;;;;;;;18.75;14.63;;;;;;;16.93;100.00;101261.16;5095034;28;20082;-51
2023/06/26 03:57:39;;;;;;;21.05;14.55;;;;;;;16.99;100.00;101266.09;5095791;28;20532;-51
2023/06/26 04:00:08;;;;;;;21.25;15.18;;;;;;;17.00;100.00;101262.50;5116422;28;20047;-52
2023/06/26 04:02:35;;;;;;;21.08;14.75;;;;;;;16.98;100.00;101264.38;5118348;28;20043;-51
2023/06/26 04:05:04;;;;;;;24.80;16.77;;;;;;;16.99;100.00;101259.91;5107181;28;20052;-50
2023/06/26 04:07:31;;;;;;;26.60;18.25;;;;;;;17.03;100.00;101261.41;5094984;28;20044;-51
2023/06/26 04:09:58;;;;;;;20.73;17.17;;;;;;;17.02;100.00;101260.56;5094809;28;20056;-51
2023/06/26 04:12:24;;;;;;;17.95;15.48;;;;;;;17.01;100.00;101258.00;5094597;28;20054;-51
2023/06/26 04:14:51;;;;;;;23.38;16.98;;;;;;;17.06;100.00;101262.06;5094121;28;20052;-51
2023/06/26 04:17:17;;;;;;;21.10;16.08;;;;;;;17.08;100.00;101253.13;5093966;28;20056;-51
2023/06/26 04:19:44;;;;;;;20.75;16.80;;;;;;;17.05;100.00;101244.34;5095126;28;20044;-51
2023/06/26 04:22:10;;;;;;;21.20;17.48;;;;;;;17.04;100.00;101247.97;5102468;28;20051;-51
2023/06/26 04:24:37;;;;;;;19.58;17.02;;;;;;;17.05;100.00;101248.84;5114481;28;20061;-51
2023/06/26 04:27:03;;;;;;;21.85;17.65;;;;;;;17.09;100.00;101249.50;5112015;28;20066;-51
2023/06/26 04:29:30;;;;;;;21.08;17.63;;;;;;;17.10;100.00;101240.50;5114142;28;20043;-50
2023/06/26 04:31:59;;;;;;;23.90;17.48;;;;;;;17.12;100.00;101239.47;5114929;28;20071;-51
2023/06/26 04:34:27;;;;;;;21.48;16.85;;;;;;;17.14;100.00;101253.56;5111243;28;20048;-51
2023/06/26 04:36:54;;;;;;;22.08;17.55;;;;;;;17.19;100.00;101246.09;5114532;28;20051;-51
2023/06/26 04:39:21;;;;;;;21.25;17.20;;;;;;;17.22;100.00;101245.06;5103891;28;20048;-51
2023/06/26 04:41:47;;;;;;;21.17;17.58;;;;;;;17.26;100.00;101249.22;5094063;28;20110;-51
2023/06/26 04:44:15;;;;;;;24.55;19.42;;;;;;;17.30;100.00;101248.09;5100931;28;20071;-51
2023/06/26 04:46:42;;;;;;;23.83;17.10;;;;;;;17.34;100.00;101244.22;5095247;28;20086;-50
2023/06/26 04:49:09;;;;;;;20.58;17.50;;;;;;;17.37;100.00;101249.38;5094216;28;20075;-51
2023/06/26 04:51:40;;;;;;;25.33;18.90;;;;;;;17.39;100.00;101242.13;5094275;28;20044;-51
2023/06/26 04:54:08;;;;;;;20.92;18.65;;;;;;;17.45;100.00;101234.66;5094114;28;20055;-51
2023/06/26 04:56:35;;;;;;;24.88;17.95;;;;;;;17.49;100.00;101230.81;5093303;28;20044;-51
2023/06/26 04:59:02;;;;;;;23.35;17.55;;;;;;;17.56;100.00;101227.63;5093464;28;20355;-50
2023/06/26 05:01:29;;;;;;;20.60;17.20;;;;;;;17.66;100.00;101227.03;5094803;28;20040;-51
2023/06/26 05:03:57;;;;;;;22.75;16.55;;;;;;;17.71;100.00;101222.22;5110524;28;20048;-50
2023/06/26 05:06:24;;;;;;;23.48;18.08;;;;;;;17.73;100.00;101229.16;5097332;28;20079;-51
2023/06/26 05:08:51;;;;;;;22.95;16.65;;;;;;;17.76;100.00;101218.25;5097163;28;20086;-50
2023/06/26 05:11:17;;;;;;;19.33;16.05;;;;;;;17.83;100.00;101217.84;5110665;28;20053;-52
2023/06/26 05:13:44;;;;;;;21.25;17.02;;;;;;;17.86;100.00;101220.31;5111141;28;20043;-51
2023/06/26 05:16:10;;;;;;;21.20;17.13;;;;;;;17.93;100.00;101218.94;5093531;28;20054;-51
2023/06/26 05:18:37;;;;;;;22.08;16.90;;;;;;;18.03;100.00;101214.69;5113573;28;20147;-51
2023/06/26 05:21:04;;;;;;;19.63;17.42;;;;;;;18.08;100.00;101209.84;5095306;28;20151;-51
2023/06/26 05:23:31;;;;;;;19.15;16.02;;;;;;;18.15;100.00;101210.28;5093495;28;20131;-52
2023/06/26 05:25:58;;;;;;;21.17;16.23;;;;;;;18.27;100.00;101200.53;5106820;28;20056;-51
2023/06/26 05:28:27;;;;;;;20.17;15.60;;;;;;;18.35;100.00;101198.16;5107777;28;20039;-52
2023/06/26 05:30:57;;;;;;;19.25;15.48;;;;;;;18.48;100.00;101193.63;5113199;28;20142;-51
2023/06/26 05:33:26;;;;;;;23.35;15.85;;;;;;;18.60;100.00;101193.72;5103982;28;20051;-51
2023/06/26 05:35:54;;;;;;;18.45;14.73;;;;;;;18.71;100.00;101188.44;5104581;28;20539;-51
2023/06/26 05:38:21;;;;;;;19.65;14.30;;;;;;;18.80;100.00;101182.41;5094154;28;20388;-51
2023/06/26 05:40:47;;;;;;;17.83;13.75;;;;;;;18.92;100.00;101179.84;5093030;28;20454;-51
2023/06/26 05:43:14;;;;;;;16.55;14.50;;;;;;;19.03;100.00;101172.69;5095447;28;20403;-51
2023/06/26 05:45:41;;;;;;;20.90;13.60;;;;;;;19.11;100.00;101169.44;5101671;28;20356;-51
2023/06/26 05:48:08;;;;;;;15.30;13.23;;;;;;;19.19;100.00;101167.06;5109754;28;20071;-51
2023/06/26 05:50:35;;;;;;;17.33;14.75;;;;;;;19.36;100.00;101151.50;5105520;28;20048;-51
2023/06/26 05:53:05;;;;;;;15.77;13.23;;;;;;;19.41;100.00;101149.34;5111396;28;20083;-51
2023/06/26 05:55:32;;;;;;;17.58;12.82;;;;;;;19.57;100.00;101144.50;5095608;28;20044;-51
2023/06/26 05:57:59;;;;;;;15.45;12.70;;;;;;;19.70;100.00;101148.88;5100874;28;20130;-52
2023/06/26 06:00:26;;;;;;;19.08;13.07;;;;;;;19.80;100.00;101140.03;5108812;28;20475;-51
2023/06/26 06:02:53;;;;;;;15.50;12.10;;;;;;;19.92;100.00;101132.84;5093357;28;20051;-51
2023/06/26 06:05:22;;;;;;;14.85;12.80;;;;;;;20.03;100.00;101133.84;5101483;28;20040;-51
2023/06/26 06:07:49;;;;;;;18.13;12.38;;;;;;;20.17;100.00;101136.25;5108556;28;20211;-51
2023/06/26 06:10:16;;;;;;;16.30;11.63;;;;;;;20.30;100.00;101123.59;5111358;28;20049;-52
2023/06/26 06:12:43;;;;;;;15.43;11.15;;;;;;;20.44;100.00;101117.06;5101971;28;20054;-51
2023/06/26 06:15:09;;;;;;;14.98;11.68;;;;;;;20.53;100.00;101120.84;5093974;28;20048;-51
2023/06/26 06:17:36;;;;;;;17.60;11.48;;;;;;;20.70;100.00;101117.66;5107508;28;20353;-51
2023/06/26 06:20:03;;;;;;;16.02;10.82;;;;;;;20.82;100.00;101120.28;5092539;28;20517;-51
2023/06/26 06:22:30;;;;;;;12.65;9.93;;;;;;;20.97;100.00;101124.38;5092128;28;20453;-51
2023/06/26 06:24:56;;;;;;;15.98;10.05;;;;;;;21.18;100.00;101108.28;5094843;28;20063;-51
2023/06/26 06:27:23;;;;;;;16.30;10.45;;;;;;;21.34;100.00;101105.13;5098513;28;20044;-51
2023/06/26 06:29:49;;;;;;;15.68;9.95;;;;;;;21.44;100.00;101108.72;5100952;28;20127;-51
2023/06/26 06:32:16;;;;;;;12.98;9.38;;;;;;;21.54;100.00;101102.59;5110292;28;20122;-51
2023/06/26 06:34:42;;;;;;;11.20;9.55;;;;;;;21.65;100.00;101097.16;5122551;28;20058;-51
2023/06/26 06:37:09;;;;;;;12.25;9.27;;;;;;;21.81;100.00;101102.03;5117844;27;20059;-51
2023/06/26 06:39:35;;;;;;;20.50;10.32;;;;;;;21.94;100.00;101101.81;5104856;28;20052;-51
2023/06/26 06:42:02;;;;;;;12.18;10.88;;;;;;;22.05;100.00;101104.41;5093179;28;20047;-51
2023/06/26 06:44:30;;;;;;;16.05;10.75;;;;;;;22.16;100.00;101101.59;5099907;28;20054;-51
2023/06/26 06:46:57;;;;;;;15.05;10.27;;;;;;;22.29;100.00;101100.53;5116356;28;20055;-51
2023/06/26 06:49:23;;;;;;;11.32;9.77;;;;;;;22.35;100.00;101105.38;5124169;27;20123;-51
2023/06/26 06:51:50;;;;;;;11.05;9.90;;;;;;;22.46;100.00;101097.19;5109255;28;20050;-51
2023/06/26 06:54:17;;;;;;;12.65;10.05;;;;;;;22.57;100.00;101098.03;5093474;28;20063;-52
2023/06/26 06:56:43;;;;;;;12.30;9.80;;;;;;;22.65;100.00;101095.50;5090475;28;20047;-52
2023/06/26 06:59:10;;;;;;;12.68;10.68;;;;;;;22.78;100.00;101096.06;5095178;28;20362;-51
2023/06/26 07:01:37;;;;;;;15.63;9.88;;;;;;;22.89;100.00;101090.53;5105305;28;20052;-52
2023/06/26 07:04:03;;;;;;;14.75;10.13;;;;;;;22.96;100.00;101081.88;5105443;28;20447;-51
2023/06/26 07:06:30;;;;;;;14.35;11.00;;;;;;;23.09;100.00;101077.06;5096681;28;20048;-51
2023/06/26 07:08:57;;;;;;;17.35;8.88;;;;;;;23.21;100.00;101075.06;5098430;28;20158;-51
2023/06/26 07:11:23;;;;;;;10.13;8.80;;;;;;;23.37;100.00;101077.16;5113152;27;20064;-51
2023/06/26 07:13:50;;;;;;;11.63;8.77;;;;;;;23.45;100.00;101088.06;5108382;27;20051;-51
2023/06/26 07:16:16;;;;;;;16.35;8.98;;;;;;;23.53;100.00;101073.88;5108382;27;20051;-51
2023/06/26 07:18:43;;;;;;;15.85;9.43;;;;;;;23.69;100.00;101075.94;5114209;27;20043;-51
2023/06/26 07:21:10;;;;;;;12.55;9.13;;;;;;;23.80;100.00;101071.22;5110000;28;20378;-51
2023/06/26 07:23:36;;;;;;;10.00;8.57;;;;;;;23.82;100.00;101063.84;5111188;27;20100;-51
2023/06/26 07:26:03;;;;;;;10.60;8.85;;;;;;;23.95;100.00;101066.19;5108261;28;20451;-51
2023/06/26 07:28:30;;;;;;;12.00;8.73;;;;;;;24.09;100.00;101058.59;5111572;28;20052;-52
2023/06/26 07:30:56;;;;;;;10.45;8.25;;;;;;;24.27;100.00;101066.72;5116027;27;20058;-52
2023/06/26 07:33:23;;;;;;;14.00;8.18;;;;;;;24.43;100.00;101055.25;5110000;27;20636;-52
2023/06/26 07:35:50;;;;;;;15.57;8.40;;;;;;;24.51;100.00;101058.03;5110932;27;20044;-52
2023/06/26 07:38:16;;;;;;;9.48;8.32;;;;;;;24.69;100.00;101045.41;5108809;28;20044;-52
2023/06/26 07:40:43;;;;;;;8.60;6.97;;;;;;;24.73;100.00;101052.19;5109343;27;20131;-51
2023/06/26 07:43:09;;;;;;;11.07;7.55;;;;;;;24.84;100.00;101042.16;5107465;27;20718;-51
2023/06/26 07:45:36;;;;;;;14.27;7.97;;;;;;;24.88;100.00;101040.81;5111898;28;20048;-51
2023/06/26 07:48:02;;;;;;;15.10;7.93;;;;;;;25.10;100.00;101037.59;5112444;28;20440;-52
2023/06/26 07:50:29;;;;;;;9.30;7.43;;;;;;;25.18;100.00;101038.69;5109903;27;20822;-51
2023/06/26 07:52:55;;;;;;;10.07;7.68;;;;;;;25.35;100.00;101037.78;5113075;28;20453;-51
2023/06/26 07:55:22;;;;;;;8.88;6.15;;;;;;;25.47;100.00;101032.97;5109995;27;20138;-51
2023/06/26 07:57:51;;;;;;;9.90;5.97;;;;;;;25.63;100.00;101029.50;5113511;27;20078;-51
2023/06/26 08:00:18;;;;;;;12.57;6.88;;;;;;;25.73;100.00;101027.53;5109480;27;20124;-51
2023/06/26 08:02:45;;;;;;;8.07;6.45;;;;;;;25.76;100.00;101021.78;5118266;27;20598;-51
2023/06/26 08:05:12;;;;;;;9.82;5.88;;;;;;;25.86;100.00;101020.78;5117293;27;20116;-51
2023/06/26 08:07:39;;;;;;;8.82;6.65;;;;;;;26.02;100.00;101015.44;5101248;28;20466;-51
2023/06/26 08:10:05;;;;;;;8.30;5.53;;;;;;;26.05;100.00;101019.72;5109826;27;20054;-51
2023/06/26 08:12:32;;;;;;;7.47;5.70;;;;;;;26.00;100.00;101020.19;5104282;28;20080;-51
2023/06/26 08:15:00;;;;;;;6.03;5.18;;;;;;;26.08;100.00;101019.38;5110417;27;20474;-52
2023/06/26 08:17:27;;;;;;;8.55;4.53;;;;;;;26.21;100.00;101021.63;5112392;27;20162;-51
2023/06/26 08:19:56;;;;;;;7.63;5.65;;;;;;;26.39;100.00;101011.47;5108507;28;20043;-50
2023/06/26 08:22:22;;;;;;;6.38;4.40;;;;;;;26.50;100.00;101018.44;5111687;28;20139;-50
2023/06/26 08:24:49;;;;;;;7.93;5.72;;;;;;;26.49;100.00;101017.56;5104459;27;20170;-50
2023/06/26 08:27:15;;;;;;;5.82;5.20;;;;;;;26.59;100.00;101017.41;5105247;27;20048;-50
2023/06/26 08:29:42;;;;;;;7.03;5.15;;;;;;;26.63;100.00;101015.22;5111336;27;20116;-51
2023/06/26 08:32:08;;;;;;;6.50;5.05;;;;;;;26.60;100.00;101013.69;5102886;28;20060;-51
2023/06/26 08:34:35;;;;;;;11.02;4.97;;;;;;;26.80;100.00;101008.81;5107227;27;20044;-51
2023/06/26 08:37:02;;;;;;;5.40;4.60;;;;;;;26.81;100.00;101005.09;5107762;27;20669;-51
2023/06/26 08:39:29;;;;;;;6.38;4.40;;;;;;;26.77;100.00;101000.19;5107350;28;20059;-51
2023/06/26 08:41:56;;;;;;;6.35;4.97;;;;;;;26.88;100.00;101003.38;5108519;28;20057;-51
2023/06/26 08:44:24;;;;;;;5.97;4.93;;;;;;;27.10;100.00;101000.97;5104792;27;20052;-51
2023/06/26 08:46:51;;;;;;;6.88;4.68;;;;;;;27.11;100.00;100994.53;5111671;27;20047;-51
2023/06/26 08:49:25;;;;;;;6.88;4.80;;;;;;;27.24;100.00;100994.84;5108014;27;20628;-51
2023/06/26 08:51:56;;;;;;;5.70;4.70;;;;;;;27.32;100.00;100990.47;5113039;27;20086;-51
2023/06/26 08:54:30;;;;;;;6.18;4.70;;;;;;;27.45;100.00;100990.75;5103250;28;20371;-51
2023/06/26 08:56:58;;;;;;;6.25;4.60;;;;;;;27.41;100.00;100992.09;5109454;28;20484;-51
2023/06/26 08:59:25;;;;;;;7.35;5.00;;;;;;;27.34;100.00;100993.84;5107966;28;20047;-51
2023/06/26 09:01:52;;;;;;;6.30;4.05;;;;;;;27.47;100.00;100992.25;5106254;27;20043;-51
2023/06/26 09:04:19;;;;;;;6.78;3.92;;;;;;;27.65;99.04;100992.00;5112066;28;20079;-51
2023/06/26 09:06:45;;;;;;;4.95;4.00;;;;;;;27.49;88.79;100983.94;5103929;28;20050;-51
2023/06/26 09:09:12;;;;;;;5.30;4.03;;;;;;;27.53;88.34;100988.00;5108741;27;20051;-51
2023/06/26 09:11:39;;;;;;;6.03;3.65;;;;;;;27.94;91.66;100987.84;5100531;28;20119;-51
2023/06/26 09:14:09;;;;;;;4.65;3.88;;;;;;;27.69;90.81;100980.78;5111842;28;20085;-50
2023/06/26 09:16:44;;;;;;;8.52;3.90;;;;;;;27.64;86.72;100978.59;5109975;28;20152;-51
2023/06/26 09:19:12;;;;;;;5.72;3.58;;;;;;;27.81;84.14;100979.41;5111305;28;20047;-50
2023/06/26 09:21:43;;;;;;;6.10;3.33;;;;;;;27.97;81.62;100971.19;5099160;28;20040;-51
2023/06/26 09:24:10;;;;;;;7.40;3.33;;;;;;;28.05;83.17;100974.88;5091831;28;20048;-50
2023/06/26 09:26:38;;;;;;;7.10;3.80;;;;;;;28.02;83.43;100968.78;5109081;28;20055;-51
2023/06/26 09:29:05;;;;;;;5.75;4.00;;;;;;;28.35;82.37;100968.53;5097147;28;20059;-51
2023/06/26 09:31:33;;;;;;;7.15;4.10;;;;;;;28.52;77.38;100971.13;5108135;28;20638;-51
2023/06/26 09:34:07;;;;;;;4.22;3.08;;;;;;;28.43;76.02;100969.47;5098519;28;20044;-51
2023/06/26 09:36:36;;;;;;;6.55;3.15;;;;;;;28.31;74.62;100955.47;5098927;28;20052;-51
2023/06/26 09:39:10;;;;;;;4.82;3.00;;;;;;;28.40;78.08;100961.72;5096290;28;20083;-51
2023/06/26 09:41:38;;;;;;;4.43;3.63;;;;;;;28.22;77.77;100960.16;5109707;28;20055;-51
2023/06/26 09:44:05;;;;;;;4.68;3.88;;;;;;;28.28;77.26;100956.72;5106116;28;20501;-51
2023/06/26 09:46:32;;;;;;;5.20;3.42;;;;;;;28.44;77.31;100952.16;5098399;28;20137;-53
2023/06/26 09:49:07;;;;;;;4.68;3.40;;;;;;;28.36;70.86;100948.50;5113000;28;20071;-50
2023/06/26 09:51:35;;;;;;;9.20;3.80;;;;;;;28.66;70.53;100943.16;5109415;28;20476;-51
2023/06/26 09:54:03;;;;;;;8.98;3.75;;;;;;;28.91;72.92;100937.47;5110415;28;20048;-51
2023/06/26 09:56:32;;;;;;;4.45;3.38;;;;;;;29.14;74.16;100942.00;5112946;28;20471;-51
2023/06/26 09:59:02;;;;;;;5.65;3.95;;;;;;;29.21;71.69;100938.38;5099546;28;20068;-50
2023/06/26 10:01:30;;;;;;;4.20;3.53;;;;;;;29.19;68.15;100934.13;5093158;28;20079;-51
2023/06/26 10:03:57;;;;;;;4.72;3.78;;;;;;;29.11;69.51;100926.88;5093225;28;20044;-51
2023/06/26 10:06:31;;;;;;;4.97;3.50;;;;;;;29.07;66.73;100926.41;5091982;28;20139;-51
2023/06/26 10:08:59;;;;;;;6.80;3.85;;;;;;;29.28;68.33;100927.56;5092791;28;20055;-51
2023/06/26 10:11:34;;;;;;;6.22;3.00;;;;;;;29.40;71.11;100926.03;5095345;28;20082;-51
2023/06/26 10:14:04;;;;;;;5.78;3.72;;;;;;;29.30;70.29;100920.06;5092728;28;20163;-51
2023/06/26 10:16:46;;;;;;;5.43;3.58;;;;;;;29.56;68.68;100925.00;5099554;28;20436;-52
2023/06/26 10:19:14;;;;;;;4.97;3.70;;;;;;;29.31;68.16;100926.34;5112544;28;20354;-51
2023/06/26 10:21:41;;;;;;;4.78;3.65;;;;;;;29.25;68.14;100911.63;5108391;28;20055;-51
2023/06/26 10:24:12;;;;;;;9.10;4.55;;;;;;;29.53;64.31;100909.03;5094448;28;20052;-51
2023/06/26 10:26:44;;;;;;;6.70;4.25;;;;;;;29.77;62.98;100920.59;5092355;28;20171;-51
2023/06/26 10:29:14;;;;;;;6.10;3.45;;;;;;;29.89;62.98;100901.91;5107426;28;20401;-51
2023/06/26 10:31:45;;;;;;;8.50;3.55;;;;;;;30.18;62.25;100901.78;5112202;28;20044;-51
2023/06/26 10:34:12;;;;;;;4.20;3.00;;;;;;;30.38;59.00;100898.41;5102036;28;20052;-51
2023/06/26 10:36:39;;;;;;;6.53;3.45;;;;;;;30.34;59.56;100897.06;5111557;28;20046;-51
2023/06/26 10:39:06;;;;;;;9.07;3.95;;;;;;;30.54;58.56;100895.41;5127871;27;20047;-51
2023/06/26 10:41:43;;;;;;;6.25;3.63;;;;;;;30.35;58.55;100890.59;5111587;28;20506;-52
2023/06/26 10:44:41;;;;;;;5.55;3.40;;;;;;;30.54;58.37;100894.56;5114225;28;20058;-51
2023/06/26 10:47:07;;;;;;;5.18;3.80;;;;;;;30.79;59.16;100881.28;5096570;28;20105;-50
2023/06/26 10:49:36;;;;;;;4.75;3.28;;;;;;;30.76;55.70;100873.50;5096082;28;20072;-51
2023/06/26 10:52:03;;;;;;;4.90;3.53;;;;;;;31.09;51.00;100876.47;5108258;28;20139;-50
2023/06/26 10:54:31;;;;;;;4.78;3.65;;;;;;;31.48;51.87;100882.28;5116134;28;20081;-50
2023/06/26 10:56:58;;;;;;;5.63;3.58;;;;;;;31.97;50.47;100872.13;5110172;28;20147;-50
2023/06/26 10:59:27;;;;;;;4.40;3.55;;;;;;;32.52;48.44;100875.50;5100689;28;20055;-51
2023/06/26 11:02:02;;;;;;;5.75;3.55;;;;;;;32.09;47.23;100877.84;5108368;28;20087;-51
2023/06/26 11:04:46;;;;;;;6.57;3.55;;;;;;;32.67;45.58;100879.94;5109873;28;20055;-51
2023/06/26 11:07:24;;;;;;;7.03;4.10;;;;;;;33.06;43.54;100865.31;5096688;28;20579;-51
2023/06/26 11:10:02;;;;;;;6.00;4.25;;;;;;;33.15;41.91;100857.69;5098723;28;20097;-51
2023/06/26 11:12:38;;;;;;;7.53;3.92;;;;;;;33.90;41.06;100861.75;5116023;28;20083;-51